Time;durP1;ratioP1;P1;durP2;ratioP2;P2;SDS_P1;SDS_P2;PMS_P1;PMS_P2;Temp;Humidity;BMP_temperature;BMP_pressure;BME280_temperature;BME280_humidity;BME280_pressure;Samples;Min_cycle;Max_cycle;Signal;HPM_P1;HPM_P2
2020/12/08 00:00:41;;;;;;;11.93;5.90;;;1.40;99.90;;;-0.69;92.90;99884.50;4963745;28;20464;-40
2020/12/08 00:03:08;;;;;;;14.35;6.53;;;1.40;99.90;;;-0.76;92.49;99889.66;4963576;28;20062;-40
2020/12/08 00:05:36;;;;;;;12.82;6.40;;;1.30;99.90;;;-0.79;92.94;99890.00;4979615;28;20034;-40
2020/12/08 00:08:05;;;;;;;14.53;6.37;;;1.30;99.90;;;-0.83;92.89;99880.59;4947740;28;20069;-40
2020/12/08 00:10:33;;;;;;;12.75;6.30;;;1.20;99.90;;;-0.82;93.28;99877.75;4980806;28;20819;-40
2020/12/08 00:13:01;;;;;;;11.07;5.80;;;1.20;99.90;;;-0.88;93.08;99881.94;4963541;28;20041;-40
2020/12/08 00:15:29;;;;;;;12.30;5.47;;;1.20;99.90;;;-0.91;92.77;99876.91;4948122;28;20104;-40
2020/12/08 00:17:56;;;;;;;12.27;6.07;;;1.10;99.90;;;-0.95;93.45;99874.69;4963325;28;20042;-40
2020/12/08 00:20:23;;;;;;;11.43;6.10;;;1.10;99.90;;;-0.98;92.93;99869.66;4931842;28;20054;-40
2020/12/08 00:22:50;;;;;;;12.18;5.78;;;1.10;99.90;;;-1.04;93.02;99860.44;4947044;28;20496;-40
2020/12/08 00:25:18;;;;;;;12.35;5.88;;;1.00;99.90;;;-1.08;93.44;99859.06;4963117;28;20049;-41
2020/12/08 00:27:45;;;;;;;11.82;5.30;;;1.00;99.90;;;-1.17;93.21;99860.88;4963584;28;20053;-40
2020/12/08 00:30:15;;;;;;;13.00;6.47;;;0.90;99.90;;;-1.19;93.32;99857.50;4963409;28;20053;-40
2020/12/08 00:32:44;;;;;;;14.13;6.65;;;0.90;99.90;;;-1.21;93.45;99851.47;4995129;28;20050;-41
2020/12/08 00:35:13;;;;;;;14.40;6.47;;;0.80;99.90;;;-1.28;93.26;99853.94;4979299;28;20042;-40
2020/12/08 00:37:44;;;;;;;12.35;5.70;;;0.80;99.90;;;-1.39;93.07;99847.03;4978914;28;20046;-40
2020/12/08 00:40:14;;;;;;;12.77;6.25;;;0.70;99.90;;;-1.45;92.96;99855.69;4995575;28;20069;-40
2020/12/08 00:42:42;;;;;;;9.18;5.15;;;0.60;99.90;;;-1.55;92.54;99855.78;4995100;28;20500;-40
2020/12/08 00:45:12;;;;;;;11.95;5.47;;;0.60;99.90;;;-1.65;92.82;99850.53;4964062;28;20050;-40
2020/12/08 00:47:40;;;;;;;13.15;5.45;;;0.50;99.90;;;-1.65;92.36;99863.09;4947332;28;20050;-40
2020/12/08 00:50:09;;;;;;;10.98;5.20;;;0.40;99.90;;;-1.72;92.80;99852.19;4947040;28;20571;-40
2020/12/08 00:52:36;;;;;;;11.95;5.50;;;0.40;99.90;;;-1.78;92.46;99850.13;4946912;28;20050;-40
2020/12/08 00:55:09;;;;;;;12.35;5.75;;;0.30;99.90;;;-1.79;92.47;99851.13;4980389;28;20065;-40
2020/12/08 00:57:40;;;;;;;11.02;5.07;;;0.30;99.90;;;-1.84;92.65;99850.75;4964372;28;20562;-40
2020/12/08 01:00:11;;;;;;;11.27;5.50;;;0.30;99.90;;;-1.89;92.99;99851.22;4933649;28;20065;-40
2020/12/08 01:02:42;;;;;;;11.80;5.53;;;0.20;99.90;;;-1.88;91.52;99851.03;4964559;28;20046;-40
2020/12/08 01:05:11;;;;;;;13.07;5.70;;;0.20;99.90;;;-1.91;92.01;99846.00;4962903;28;20041;-40
2020/12/08 01:07:41;;;;;;;12.27;6.40;;;0.20;99.90;;;-1.95;92.21;99847.31;5012124;28;20042;-40
2020/12/08 01:10:16;;;;;;;13.05;6.28;;;0.10;99.90;;;-1.93;91.75;99853.34;4980763;28;20062;-41
2020/12/08 01:12:44;;;;;;;9.98;5.10;;;0.10;99.90;;;-1.96;92.31;99859.00;4947143;28;20111;-40
2020/12/08 01:15:13;;;;;;;11.45;6.00;;;0.10;99.90;;;-1.95;92.90;99866.03;4963085;28;20050;-40
2020/12/08 01:17:43;;;;;;;11.43;5.60;;;0.10;99.90;;;-1.94;92.55;99873.06;4963300;28;20069;-40
2020/12/08 01:20:10;;;;;;;12.57;5.72;;;0.10;99.90;;;-1.98;92.51;99877.03;4978678;28;20475;-40
2020/12/08 01:22:39;;;;;;;12.13;5.60;;;0.10;99.90;;;-2.06;92.91;99876.97;4963207;28;20128;-40
2020/12/08 01:25:07;;;;;;;10.70;5.50;;;0.00;99.90;;;-2.10;92.38;99880.97;4962646;28;20471;-40
2020/12/08 01:27:37;;;;;;;14.70;5.85;;;0.00;99.90;;;-2.14;92.56;99880.41;4962839;28;20054;-40
2020/12/08 01:30:06;;;;;;;11.93;5.60;;;0.00;99.90;;;-2.14;92.90;99875.06;4947427;28;20072;-40
2020/12/08 01:32:38;;;;;;;12.00;5.22;;;-0.10;99.90;;;-2.19;92.53;99882.72;4979929;28;20057;-40
2020/12/08 01:35:07;;;;;;;11.95;5.93;;;-0.10;99.90;;;-2.22;92.80;99881.16;4946880;28;20519;-40
2020/12/08 01:37:35;;;;;;;12.07;5.82;;;-0.10;99.90;;;-2.26;92.56;99882.47;4962954;28;20064;-40
2020/12/08 01:40:06;;;;;;;12.52;5.80;;;-0.10;99.90;;;-2.24;93.07;99885.00;4962998;28;20113;-40
2020/12/08 01:42:34;;;;;;;12.93;5.95;;;-0.20;99.90;;;-2.26;93.07;99882.47;4978406;28;20421;-40
2020/12/08 01:45:03;;;;;;;12.38;6.03;;;-0.10;99.90;;;-2.26;93.76;99879.78;4946326;28;20049;-40
2020/12/08 01:47:31;;;;;;;11.10;5.55;;;-0.20;99.90;;;-2.23;93.58;99878.66;4962288;28;20125;-41
2020/12/08 01:49:59;;;;;;;;;;;-0.10;99.90;;;-2.22;93.15;99888.38;4979058;28;20053;-40
2020/12/08 01:52:28;;;;;;;;;;;-0.20;99.90;;;-2.17;93.31;99894.91;4978840;28;20471;-40
2020/12/08 01:55:03;;;;;;;9.45;4.70;;;-0.10;99.90;;;-2.12;93.62;99888.25;4963540;28;19921;-40
2020/12/08 01:57:34;;;;;;;11.73;5.45;;;-0.10;99.90;;;-2.04;93.37;99891.03;4964266;28;20048;-40
2020/12/08 02:00:06;;;;;;;15.05;5.55;;;0.00;99.90;;;-1.97;93.06;99886.75;4933884;28;20153;-40
2020/12/08 02:02:42;;;;;;;12.13;5.38;;;0.00;99.90;;;-1.91;93.07;99885.28;4950877;28;20069;-40
2020/12/08 02:05:21;;;;;;;15.77;6.32;;;0.10;99.90;;;-1.83;93.78;99882.69;4983589;28;20124;-40
2020/12/08 02:07:50;;;;;;;12.25;5.97;;;0.10;99.90;;;-1.76;93.61;99882.91;4982606;28;20092;-40
2020/12/08 02:10:18;;;;;;;11.07;5.55;;;0.20;99.90;;;-1.65;93.89;99884.50;4982162;28;20467;-40
2020/12/08 02:12:46;;;;;;;11.90;5.55;;;0.30;99.90;;;-1.61;93.66;99883.19;4965970;28;20045;-40
2020/12/08 02:15:17;;;;;;;13.00;5.85;;;0.30;99.90;;;-1.55;93.85;99884.41;4967365;28;20050;-40
2020/12/08 02:17:46;;;;;;;12.35;5.47;;;0.40;99.90;;;-1.52;94.08;99889.44;4950721;28;20054;-40
2020/12/08 02:20:15;;;;;;;12.77;5.80;;;0.40;99.90;;;-1.50;93.96;99887.44;4966232;28;20144;-40
2020/12/08 02:22:43;;;;;;;12.27;5.55;;;0.50;99.90;;;-1.42;94.19;99884.81;4982213;28;20073;-40
2020/12/08 02:25:12;;;;;;;13.65;6.13;;;0.50;99.90;;;-1.38;94.74;99880.00;4950493;28;20104;-41
2020/12/08 02:27:40;;;;;;;10.00;5.35;;;0.60;99.90;;;-1.37;94.42;99882.50;4965969;28;20080;-40
2020/12/08 02:30:11;;;;;;;15.02;6.30;;;0.60;99.90;;;-1.36;94.76;99886.84;4966740;28;20056;-40
2020/12/08 02:32:40;;;;;;;14.10;6.05;;;0.60;99.90;;;-1.34;94.44;99882.19;4981959;28;20061;-40
2020/12/08 02:35:09;;;;;;;12.55;6.05;;;0.60;99.90;;;-1.31;94.19;99879.22;4965378;28;20042;-40
2020/12/08 02:37:38;;;;;;;10.35;5.88;;;0.70;99.90;;;-1.26;94.23;99875.22;4965631;28;20053;-40
2020/12/08 02:40:07;;;;;;;12.13;6.35;;;0.70;99.90;;;-1.24;94.63;99881.25;4997712;28;20072;-41
2020/12/08 02:42:38;;;;;;;13.38;6.10;;;0.70;99.90;;;-1.17;94.96;99875.09;4951173;28;20504;-41
2020/12/08 02:45:06;;;;;;;13.52;6.32;;;0.80;99.90;;;-1.09;94.46;99886.84;4965888;28;20423;-40
2020/12/08 02:47:35;;;;;;;17.20;7.40;;;0.80;99.90;;;-1.04;95.25;99876.50;4981984;28;20042;-40
2020/12/08 02:50:05;;;;;;;17.02;7.57;;;0.90;99.90;;;-0.99;94.91;99884.88;4965819;28;20050;-40
2020/12/08 02:52:34;;;;;;;14.38;7.05;;;0.90;99.90;;;-0.97;95.51;99884.72;4997335;28;20046;-40
2020/12/08 02:55:03;;;;;;;13.65;6.90;;;1.00;99.90;;;-0.97;95.51;99887.41;4949453;28;20049;-40
2020/12/08 02:57:37;;;;;;;13.77;6.85;;;0.90;99.90;;;-1.02;94.91;99877.16;4953399;28;20597;-40
2020/12/08 03:00:06;;;;;;;13.82;6.50;;;0.90;99.90;;;-1.00;95.32;99888.56;4949789;28;20530;-40
2020/12/08 03:02:34;;;;;;;13.88;6.57;;;1.00;99.90;;;-1.02;95.18;99887.88;4981516;28;20109;-40
2020/12/08 03:05:02;;;;;;;14.23;6.53;;;0.90;99.90;;;-1.03;95.46;99887.06;4948970;28;20140;-41
2020/12/08 03:07:30;;;;;;;14.65;6.07;;;1.00;99.90;;;-1.06;95.38;99889.19;4949451;28;20096;-40
2020/12/08 03:09:59;;;;;;;13.98;6.70;;;0.90;99.90;;;-1.04;94.84;99893.41;4965075;28;20103;-41
2020/12/08 03:12:31;;;;;;;11.80;6.00;;;0.90;99.90;;;-1.02;94.82;99895.91;4966006;28;20054;-40
2020/12/08 03:14:58;;;;;;;15.07;7.05;;;0.90;99.90;;;-1.02;95.46;99886.06;4980489;28;20045;-40
2020/12/08 03:17:35;;;;;;;12.98;6.63;;;1.00;99.90;;;-0.99;95.04;99886.72;4967414;28;20038;-40
2020/12/08 03:20:05;;;;;;;12.98;6.68;;;0.90;99.90;;;-0.96;95.43;99889.91;4949095;28;20046;-41
2020/12/08 03:22:40;;;;;;;11.43;6.20;;;1.00;99.90;;;-0.97;95.38;99882.88;4982306;28;20061;-40
2020/12/08 03:25:10;;;;;;;12.35;6.00;;;1.00;99.90;;;-0.94;95.38;99881.72;4981228;28;20068;-41
2020/12/08 03:27:38;;;;;;;17.80;7.20;;;1.00;99.90;;;-0.90;94.79;99883.94;4980645;28;20061;-40
2020/12/08 03:30:07;;;;;;;15.18;6.82;;;1.00;99.90;;;-0.90;95.51;99873.22;4949165;28;20048;-40
2020/12/08 03:32:35;;;;;;;14.43;7.05;;;1.00;99.90;;;-0.83;94.77;99880.59;4964849;28;20125;-40
2020/12/08 03:35:07;;;;;;;16.35;7.18;;;1.10;99.90;;;-0.82;95.18;99882.28;4950120;28;20049;-40
2020/12/08 03:37:34;;;;;;;;;;;1.10;99.90;;;-0.79;95.58;99881.97;4980763;28;20053;-40
2020/12/08 03:40:07;;;;;;;14.23;6.35;;;1.10;99.90;;;-0.77;94.81;99886.16;4981885;28;19967;-40
2020/12/08 03:42:34;;;;;;;12.70;6.93;;;1.20;99.90;;;-0.78;95.19;99884.50;4964163;28;20416;-40
2020/12/08 03:45:05;;;;;;;12.93;6.28;;;1.20;99.90;;;-0.76;95.44;99884.31;4965294;28;20049;-40
2020/12/08 03:47:41;;;;;;;13.20;6.40;;;1.20;99.90;;;-0.75;95.58;99883.31;4968096;28;20054;-40
2020/12/08 03:50:11;;;;;;;11.73;6.18;;;1.20;99.90;;;-0.73;95.37;99879.47;4949374;28;20603;-40
2020/12/08 03:52:40;;;;;;;15.43;6.85;;;1.20;99.90;;;-0.73;95.53;99884.84;4980423;28;20061;-40
2020/12/08 03:55:09;;;;;;;14.40;6.97;;;1.20;99.90;;;-0.73;95.33;99874.13;4948734;28;20164;-40
2020/12/08 03:57:37;;;;;;;14.48;6.30;;;1.20;99.90;;;-0.68;95.47;99873.63;4948655;28;20054;-41
2020/12/08 04:00:08;;;;;;;12.13;5.57;;;1.20;99.90;;;-0.68;95.31;99870.13;4932191;28;20129;-41
2020/12/08 04:02:38;;;;;;;11.57;5.53;;;1.30;99.90;;;-0.67;94.87;99882.50;4949561;28;20142;-40
2020/12/08 04:05:14;;;;;;;11.68;5.32;;;1.30;99.90;;;-0.67;95.43;99883.34;4965709;28;20046;-40
2020/12/08 04:07:42;;;;;;;15.40;7.00;;;1.30;99.90;;;-0.66;95.02;99881.50;4995909;28;20072;-40
2020/12/08 04:10:10;;;;;;;15.35;7.07;;;1.30;99.90;;;-0.64;95.65;99885.72;4979868;28;20034;-40
2020/12/08 04:12:37;;;;;;;14.95;5.97;;;1.30;99.90;;;-0.62;95.16;99886.38;4947660;28;20045;-40
2020/12/08 04:15:05;;;;;;;12.00;5.57;;;1.30;99.90;;;-0.61;95.13;99888.06;4963844;28;20511;-40
2020/12/08 04:17:33;;;;;;;14.35;7.07;;;1.30;99.90;;;-0.57;95.22;99885.06;4979708;28;20049;-40
2020/12/08 04:20:02;;;;;;;14.95;6.93;;;1.30;99.90;;;-0.57;95.11;99885.06;4979990;28;20050;-40
2020/12/08 04:22:30;;;;;;;14.73;6.93;;;1.40;99.90;;;-0.54;95.75;99882.88;4963890;28;20046;-40
2020/12/08 04:24:57;;;;;;;17.55;7.85;;;1.40;99.90;;;-0.52;95.12;99893.44;4979134;28;20073;-41
2020/12/08 04:27:25;;;;;;;17.70;7.95;;;1.40;99.90;;;-0.51;95.49;99889.75;4963708;28;20120;-40
2020/12/08 04:29:59;;;;;;;12.75;6.55;;;1.40;99.90;;;-0.49;95.25;99891.28;4966060;28;20117;-40
2020/12/08 04:32:34;;;;;;;16.02;7.30;;;1.40;99.90;;;-0.46;95.06;99899.00;4966940;28;20064;-40
2020/12/08 04:35:01;;;;;;;13.70;7.63;;;1.50;99.90;;;-0.44;95.31;99891.63;4915917;28;20041;-40
2020/12/08 04:37:29;;;;;;;15.87;7.00;;;1.50;99.90;;;-0.42;95.81;99895.97;4964677;28;20113;-40
2020/12/08 04:39:56;;;;;;;14.23;6.35;;;1.50;99.90;;;-0.43;95.71;99900.50;4979365;28;20510;-40
2020/12/08 04:42:23;;;;;;;15.80;6.85;;;1.50;99.90;;;-0.44;95.54;99899.66;4963204;28;20057;-40
2020/12/08 04:44:52;;;;;;;17.50;7.70;;;1.50;99.90;;;-0.41;95.17;99905.69;4962748;28;20068;-40
2020/12/08 04:47:21;;;;;;;18.77;7.60;;;1.50;99.90;;;-0.39;95.51;99896.50;4963034;28;20416;-40
2020/12/08 04:49:54;;;;;;;17.25;7.97;;;1.50;99.90;;;-0.34;95.77;99901.34;4978787;28;20052;-40
2020/12/08 04:52:21;;;;;;;21.95;9.70;;;1.60;99.90;;;-0.28;95.51;99895.31;4978719;28;20045;-40
2020/12/08 04:54:48;;;;;;;19.40;8.95;;;1.60;99.90;;;-0.23;95.56;99898.38;4978450;28;20096;-40
2020/12/08 04:57:15;;;;;;;18.08;8.20;;;1.70;99.90;;;-0.20;96.24;99890.00;4946736;28;20056;-40
2020/12/08 04:59:43;;;;;;;16.98;7.68;;;1.70;99.90;;;-0.19;95.67;99893.50;4978980;28;20045;-40
2020/12/08 05:02:10;;;;;;;14.75;7.05;;;1.70;99.90;;;-0.22;95.85;99886.66;4979090;28;20046;-40
2020/12/08 05:04:37;;;;;;;14.30;7.35;;;1.70;99.90;;;-0.18;95.68;99889.81;4962477;28;20044;-40
2020/12/08 05:07:07;;;;;;;18.10;8.13;;;1.70;99.90;;;-0.18;95.62;99895.19;4978742;28;20548;-40
2020/12/08 05:09:47;;;;;;;20.52;9.32;;;1.70;99.90;;;-0.19;95.75;99896.19;4979434;28;20057;-40
2020/12/08 05:12:25;;;;;;;17.90;7.75;;;1.70;99.90;;;-0.20;96.07;99898.06;4946390;28;20057;-40
2020/12/08 05:14:52;;;;;;;15.20;7.63;;;1.70;99.90;;;-0.18;95.78;99900.53;4994491;28;20050;-40
2020/12/08 05:17:23;;;;;;;20.33;9.30;;;1.70;99.90;;;-0.17;95.72;99896.84;4962763;28;20045;-40
2020/12/08 05:20:04;;;;;;;19.73;8.85;;;1.70;99.90;;;-0.16;96.05;99906.59;4978300;28;20397;-41
2020/12/08 05:22:33;;;;;;;17.30;8.02;;;1.80;99.90;;;-0.11;96.31;99903.41;4978316;28;20044;-40
2020/12/08 05:25:10;;;;;;;;;;;1.80;99.90;;;-0.10;96.22;99905.94;4979151;28;20042;-40
2020/12/08 05:27:38;;;;;;;20.73;8.30;;;1.80;99.90;;;-0.06;96.38;99904.59;4978296;28;20435;-40
2020/12/08 05:30:06;;;;;;;;;;;1.80;99.90;;;-0.02;96.03;99899.72;4962649;28;20045;-40
2020/12/08 05:32:38;;;;;;;17.30;8.30;;;1.80;99.90;;;0.01;96.34;99903.94;4978550;28;19943;-40
2020/12/08 05:35:10;;;;;;;21.58;10.25;;;1.90;99.90;;;0.07;96.23;99905.94;4978081;28;20530;-40
2020/12/08 05:37:41;;;;;;;20.55;9.40;;;1.90;99.90;;;0.14;95.92;99913.16;4993950;28;20416;-40
2020/12/08 05:40:12;;;;;;;22.20;10.32;;;2.00;99.90;;;0.23;96.21;99913.16;4930587;28;20084;-40
2020/12/08 05:42:44;;;;;;;26.63;11.35;;;2.10;99.90;;;0.37;96.69;99912.50;4961951;28;20129;-40
2020/12/08 05:45:15;;;;;;;25.80;10.38;;;2.20;99.90;;;0.47;96.30;99909.66;4978533;28;20149;-40
2020/12/08 05:47:56;;;;;;;24.23;10.52;;;2.30;99.90;;;0.60;96.83;99906.47;4994219;28;20046;-40
2020/12/08 05:50:27;;;;;;;25.60;10.70;;;2.40;99.90;;;0.73;96.79;99911.31;4994173;28;20475;-41
2020/12/08 05:53:00;;;;;;;25.73;10.63;;;2.50;99.90;;;0.80;97.05;99916.84;4978572;28;20046;-40
2020/12/08 05:55:37;;;;;;;26.23;11.20;;;2.60;99.90;;;0.90;96.98;99909.41;4993894;28;20056;-40
2020/12/08 05:58:09;;;;;;;24.98;11.00;;;2.70;99.90;;;0.99;96.58;99905.69;4978325;28;20069;-40
2020/12/08 06:00:37;;;;;;;24.13;10.05;;;2.80;99.90;;;1.07;96.87;99910.19;4995108;28;20042;-40
2020/12/08 06:03:16;;;;;;;24.23;10.68;;;2.90;99.90;;;1.18;96.09;99913.53;4994064;28;20107;-40
2020/12/08 06:05:47;;;;;;;21.80;10.52;;;3.00;99.90;;;1.21;95.01;99914.03;5011912;28;20050;-40
2020/12/08 06:08:24;;;;;;;20.80;10.02;;;3.00;99.90;;;1.33;93.39;99911.78;4977772;28;20618;-40
2020/12/08 06:10:55;;;;;;;22.25;9.75;;;3.10;99.90;;;1.43;91.98;99912.41;4980039;28;20471;-40
2020/12/08 06:13:33;;;;;;;18.70;9.27;;;3.20;99.90;;;1.62;89.64;99912.19;4977490;28;20124;-40
2020/12/08 06:16:15;;;;;;;19.17;8.23;;;3.30;99.90;;;1.63;88.66;99924.59;5011639;28;20124;-40
2020/12/08 06:18:43;;;;;;;15.05;7.05;;;3.40;99.90;;;1.73;87.24;99919.84;5011486;28;20050;-40
2020/12/08 06:21:29;;;;;;;15.15;6.80;;;3.50;99.90;;;1.78;86.32;99922.81;5011455;28;20049;-40
2020/12/08 06:24:05;;;;;;;11.73;6.80;;;3.50;99.90;;;1.80;85.29;99920.78;4993624;28;20057;-40
2020/12/08 06:26:37;;;;;;;13.13;6.28;;;3.60;99.90;;;1.90;84.88;99927.81;4961742;28;20050;-40
2020/12/08 06:29:07;;;;;;;13.13;6.07;;;3.70;99.90;;;1.83;84.83;99933.88;4994296;28;20057;-40
2020/12/08 06:31:47;;;;;;;12.18;5.97;;;3.60;99.90;;;1.82;84.80;99942.16;5011405;28;20073;-40
2020/12/08 06:34:28;;;;;;;12.55;6.60;;;3.60;99.90;;;1.83;85.12;99939.28;4993657;28;20046;-40
2020/12/08 06:37:08;;;;;;;12.80;6.97;;;3.60;99.90;;;1.76;84.99;99943.69;5011158;28;20134;-40
2020/12/08 06:39:35;;;;;;;12.80;6.40;;;3.60;99.90;;;1.78;85.09;99940.84;4995630;28;20535;-41
2020/12/08 06:42:13;;;;;;;13.05;6.75;;;3.60;99.90;;;1.76;85.64;99951.75;5011374;28;20077;-40
2020/12/08 06:44:40;;;;;;;15.98;7.28;;;3.60;99.90;;;1.77;85.47;99953.44;4977317;28;20092;-40
2020/12/08 06:47:07;;;;;;;14.55;7.53;;;3.60;99.90;;;1.74;86.26;99939.50;4977820;28;20038;-40
2020/12/08 06:49:39;;;;;;;13.88;7.10;;;3.60;99.90;;;1.79;86.21;99943.31;4993868;28;20053;-40
2020/12/08 06:52:16;;;;;;;13.70;7.00;;;3.60;99.90;;;1.80;85.54;99944.19;5012871;28;20134;-40
2020/12/08 06:54:43;;;;;;;17.80;8.02;;;3.60;99.90;;;1.90;85.00;99952.84;4996835;28;20064;-40
2020/12/08 06:57:10;;;;;;;14.90;6.95;;;3.70;99.90;;;1.90;85.29;99952.84;4997126;28;20046;-40
2020/12/08 06:59:37;;;;;;;13.60;7.35;;;3.70;99.90;;;1.90;84.97;99950.16;5014641;28;20065;-40
2020/12/08 07:02:04;;;;;;;11.98;6.45;;;3.70;99.90;;;1.94;85.79;99961.41;4981258;28;20312;-40
2020/12/08 07:04:32;;;;;;;15.00;7.25;;;3.70;99.90;;;1.94;84.42;99959.56;4996851;28;20145;-40
2020/12/08 07:06:59;;;;;;;13.60;6.63;;;3.70;99.90;;;2.01;84.80;99963.22;4981025;28;20034;-40
2020/12/08 07:09:33;;;;;;;13.32;6.53;;;3.80;99.90;;;2.05;83.62;99970.94;4997053;28;20543;-40
2020/12/08 07:12:03;;;;;;;15.15;6.28;;;3.80;99.90;;;2.06;83.67;99967.25;4996238;28;20137;-40
2020/12/08 07:14:30;;;;;;;12.13;5.68;;;3.80;99.90;;;2.09;82.26;99969.56;5013904;28;20476;-40
2020/12/08 07:16:57;;;;;;;11.80;5.87;;;3.90;99.90;;;2.09;82.71;99969.56;4997059;28;20101;-40
2020/12/08 07:19:24;;;;;;;12.32;5.97;;;3.90;99.90;;;2.12;82.57;99975.44;4964453;28;20046;-40
2020/12/08 07:22:08;;;;;;;11.68;5.43;;;3.90;99.90;;;2.12;82.03;99982.66;4964536;28;20038;-40
2020/12/08 07:24:47;;;;;;;12.27;5.10;;;3.90;99.90;;;2.12;82.12;99977.28;4980039;28;20065;-40
2020/12/08 07:27:14;;;;;;;;;;;3.90;99.90;;;2.19;81.16;99985.50;4997011;28;20121;-40
2020/12/08 07:29:42;;;;;;;10.00;5.10;;;4.00;99.90;;;2.10;82.10;99982.00;4996688;28;19921;-40
2020/12/08 07:32:09;;;;;;;11.02;5.25;;;3.90;99.90;;;2.08;82.11;99979.47;4996597;28;20124;-40
2020/12/08 07:34:47;;;;;;;12.88;6.07;;;3.90;99.90;;;2.10;82.82;99990.91;4980018;28;20052;-40
2020/12/08 07:37:23;;;;;;;11.05;5.95;;;3.90;99.90;;;2.08;83.22;99986.72;4996400;28;20050;-40
2020/12/08 07:39:53;;;;;;;11.85;6.05;;;3.90;99.90;;;2.07;82.86;99988.56;4996303;28;20052;-40
2020/12/08 07:42:20;;;;;;;10.70;5.88;;;3.90;99.90;;;2.06;83.48;99992.28;4996748;28;20045;-40
2020/12/08 07:44:58;;;;;;;11.33;5.60;;;3.90;99.90;;;2.14;82.65;99986.88;5013473;28;20038;-40
2020/12/08 07:47:25;;;;;;;11.57;6.15;;;3.90;99.90;;;2.09;82.73;99997.31;4980290;28;20069;-40
2020/12/08 07:49:53;;;;;;;11.63;6.20;;;3.90;99.90;;;2.08;83.40;100001.00;4996206;28;20045;-40
2020/12/08 07:52:20;;;;;;;12.80;6.00;;;3.90;99.90;;;2.08;83.29;100003.69;4980087;28;20104;-40
2020/12/08 07:54:47;;;;;;;13.95;6.55;;;3.90;99.90;;;2.07;83.76;100003.91;4979916;28;20068;-40
2020/12/08 07:57:14;;;;;;;12.77;6.65;;;3.90;99.90;;;2.06;84.22;100003.03;4995751;28;20104;-41
2020/12/08 07:59:41;;;;;;;14.88;7.40;;;3.90;99.90;;;2.12;83.40;100012.28;4979716;28;20034;-40
2020/12/08 08:02:08;;;;;;;12.57;6.00;;;3.90;99.90;;;2.11;84.64;100006.03;4995399;28;20464;-40
2020/12/08 08:04:35;;;;;;;13.40;7.03;;;3.90;99.90;;;2.11;83.97;100008.72;4995445;28;20038;-41
2020/12/08 08:07:02;;;;;;;14.98;7.40;;;3.90;99.90;;;2.12;84.83;100018.50;4995923;28;20092;-40
2020/12/08 08:09:29;;;;;;;13.20;7.10;;;3.90;99.90;;;2.10;84.46;100009.75;4995717;28;20057;-40
2020/12/08 08:11:56;;;;;;;14.52;7.32;;;3.90;99.90;;;2.11;85.04;100015.97;4996007;28;20053;-40
2020/12/08 08:14:24;;;;;;;12.48;6.57;;;3.90;99.90;;;2.11;84.68;100019.50;4995576;28;20104;-41
2020/12/08 08:17:03;;;;;;;13.57;6.90;;;3.90;99.90;;;2.09;85.03;100016.13;4997659;28;20066;-40
2020/12/08 08:19:30;;;;;;;16.60;7.55;;;3.90;99.90;;;2.11;85.13;100010.59;4979063;28;20038;-40
2020/12/08 08:21:57;;;;;;;15.52;7.25;;;3.90;99.90;;;2.12;85.11;100013.13;4995374;28;20069;-41
2020/12/08 08:24:24;;;;;;;16.57;7.93;;;3.90;99.90;;;2.09;84.47;100009.94;4963186;28;20128;-40
2020/12/08 08:26:52;;;;;;;14.52;7.50;;;3.90;99.90;;;2.17;85.44;100015.25;4995657;28;21051;-40
2020/12/08 08:29:19;;;;;;;15.07;7.53;;;3.90;99.90;;;2.14;84.61;100021.84;5013057;28;20093;-40
2020/12/08 08:31:47;;;;;;;17.73;7.93;;;3.90;99.90;;;2.13;85.81;100020.19;5012868;28;20056;-40
2020/12/08 08:34:15;;;;;;;15.65;7.78;;;3.90;99.90;;;2.18;85.84;100018.81;4963602;28;20684;-40
2020/12/08 08:36:53;;;;;;;15.93;8.30;;;4.00;99.90;;;2.20;85.15;100020.28;5012479;28;20046;-41
2020/12/08 08:39:22;;;;;;;;;;;4.00;99.90;;;2.19;85.29;100015.91;4996122;28;20294;-40
2020/12/08 08:41:53;;;;;;;12.55;6.60;;;4.00;99.90;;;2.25;85.69;100023.28;4995135;28;19921;-40
2020/12/08 08:44:22;;;;;;;15.30;7.20;;;4.00;99.90;;;2.32;84.33;100017.22;5012539;28;20046;-40
2020/12/08 08:46:49;;;;;;;14.63;7.70;;;4.00;99.90;;;2.30;84.21;100025.44;5012402;28;20052;-40
2020/12/08 08:49:17;;;;;;;16.33;7.78;;;4.00;99.90;;;2.32;84.50;100022.59;4994973;28;20057;-40
2020/12/08 08:51:48;;;;;;;15.18;7.78;;;4.00;99.90;;;2.31;85.36;100027.13;5012654;28;20041;-40
2020/12/08 08:54:18;;;;;;;14.45;7.13;;;4.10;99.90;;;2.33;84.62;100038.56;5012417;28;20464;-41
2020/12/08 08:56:46;;;;;;;15.68;7.85;;;4.10;99.90;;;2.35;85.49;100030.31;5012396;28;20041;-40
2020/12/08 08:59:13;;;;;;;15.18;7.60;;;4.10;99.90;;;2.37;84.70;100030.97;5012230;28;20543;-41
2020/12/08 09:01:40;;;;;;;15.35;7.85;;;4.10;99.90;;;2.40;84.70;100027.91;4978720;28;20050;-40
2020/12/08 09:04:07;;;;;;;15.75;8.18;;;4.20;99.90;;;2.46;84.90;100034.44;4978862;28;20045;-40
2020/12/08 09:06:34;;;;;;;14.32;7.63;;;4.20;99.90;;;2.46;85.03;100032.56;5012332;28;20045;-42
2020/12/08 09:09:01;;;;;;;16.05;7.43;;;4.20;99.90;;;2.50;84.77;100035.75;4994969;28;20053;-41
2020/12/08 09:11:28;;;;;;;15.48;7.80;;;4.20;99.90;;;2.51;84.87;100037.44;4994572;28;20096;-41
2020/12/08 09:13:56;;;;;;;15.25;7.75;;;4.20;99.90;;;2.53;85.16;100041.63;5011095;28;20508;-40
2020/12/08 09:16:25;;;;;;;15.17;7.57;;;4.30;99.90;;;2.57;84.68;100039.41;4994889;28;20173;-40
2020/12/08 09:18:53;;;;;;;15.95;7.85;;;4.30;99.90;;;2.56;84.33;100038.59;4979234;28;20042;-41
2020/12/08 09:21:21;;;;;;;16.08;7.88;;;4.30;99.90;;;2.58;84.04;100039.25;4963037;28;20475;-40
2020/12/08 09:23:48;;;;;;;15.07;7.47;;;4.30;99.90;;;2.61;84.63;100042.59;4962425;28;20038;-41
2020/12/08 09:26:15;;;;;;;13.50;7.72;;;4.30;99.90;;;2.64;84.23;100047.63;4962241;28;20042;-41
2020/12/08 09:28:43;;;;;;;17.77;8.13;;;4.40;99.90;;;2.67;83.80;100047.25;5012080;28;20046;-40
2020/12/08 09:31:11;;;;;;;14.55;7.45;;;4.40;99.90;;;2.72;83.01;100048.41;4994946;28;20459;-41
2020/12/08 09:33:38;;;;;;;15.23;7.15;;;4.40;99.90;;;2.75;83.13;100043.66;5011756;28;20038;-41
2020/12/08 09:36:06;;;;;;;15.48;8.23;;;4.40;99.90;;;2.78;83.48;100040.59;4994037;28;20099;-41
2020/12/08 09:38:33;;;;;;;15.45;8.25;;;4.50;99.90;;;2.86;82.79;100043.22;5011738;28;20038;-40
2020/12/08 09:41:00;;;;;;;16.77;8.17;;;4.50;99.90;;;2.88;82.94;100044.75;4994720;28;20095;-41
2020/12/08 09:43:27;;;;;;;13.65;6.93;;;4.60;99.90;;;2.96;83.56;100040.28;5011830;28;20034;-41
2020/12/08 09:45:55;;;;;;;14.15;7.07;;;4.60;99.90;;;3.02;82.44;100056.56;4994190;28;20100;-41
2020/12/08 09:48:22;;;;;;;13.65;6.82;;;4.70;99.90;;;3.01;81.99;100054.06;4994394;28;20064;-40
2020/12/08 09:50:51;;;;;;;15.85;7.60;;;4.70;99.90;;;3.05;82.95;100049.16;4978288;28;20397;-40
2020/12/08 09:53:19;;;;;;;14.20;7.70;;;4.70;99.90;;;3.04;82.34;100050.16;4994101;28;20508;-40
2020/12/08 09:55:48;;;;;;;12.57;7.00;;;4.70;99.90;;;3.05;82.41;100038.38;4993917;28;20046;-41
2020/12/08 09:58:15;;;;;;;14.15;7.40;;;4.70;99.90;;;3.05;82.16;100041.06;5011756;28;20038;-41
2020/12/08 10:00:43;;;;;;;15.43;7.22;;;4.70;99.90;;;3.07;81.93;100047.09;4994094;28;20065;-41
2020/12/08 10:03:10;;;;;;;16.20;7.65;;;4.80;99.90;;;3.06;81.76;100045.44;4978282;28;20038;-40
2020/12/08 10:05:37;;;;;;;13.40;7.17;;;4.80;99.90;;;3.06;82.11;100045.44;4977978;28;20116;-41
2020/12/08 10:08:04;;;;;;;13.73;6.70;;;4.80;99.90;;;3.15;81.24;100049.72;4978194;28;20544;-40
2020/12/08 10:10:31;;;;;;;13.07;7.45;;;4.90;99.90;;;3.22;79.95;100058.78;4978181;28;20559;-40
2020/12/08 10:13:00;;;;;;;13.68;7.05;;;4.90;99.90;;;3.25;79.51;100052.16;4993915;28;20053;-40
2020/12/08 10:15:28;;;;;;;11.65;6.63;;;4.90;99.90;;;3.27;81.23;100050.97;4978208;28;20069;-41
2020/12/08 10:17:55;;;;;;;14.52;6.97;;;5.00;99.90;;;3.41;80.13;100054.69;4994076;28;20042;-40
2020/12/08 10:20:22;;;;;;;13.65;6.68;;;5.10;99.90;;;3.46;79.92;100051.47;5011320;28;20559;-40
2020/12/08 10:22:49;;;;;;;12.98;6.55;;;5.10;99.90;;;3.51;80.27;100048.19;4994033;28;20038;-41
2020/12/08 10:25:17;;;;;;;12.65;6.80;;;5.10;99.90;;;3.54;78.63;100045.97;4994433;28;20038;-41
2020/12/08 10:27:44;;;;;;;16.93;7.57;;;5.20;99.90;;;3.60;79.19;100034.44;4981481;28;20370;-41
2020/12/08 10:30:11;;;;;;;14.77;6.90;;;5.20;99.90;;;3.61;79.30;100037.97;4997371;28;20544;-41
2020/12/08 10:32:38;;;;;;;12.68;6.63;;;5.30;99.90;;;3.69;79.93;100045.97;4965912;28;20041;-40